sensor_id;sensor_type;location;lat;lon;timestamp;pressure;altitude;pressure_sealevel;temperature;humidity
41334;BME280;27078;46.428;6.256;2023-07-02T00:01:15;96276.00;;;16.63;100.00
41334;BME280;27078;46.428;6.256;2023-07-02T00:03:41;96277.66;;;16.64;100.00
41334;BME280;27078;46.428;6.256;2023-07-02T00:06:06;96285.78;;;16.71;100.00
41334;BME280;27078;46.428;6.256;2023-07-02T00:08:32;96274.75;;;16.74;100.00
41334;BME280;27078;46.428;6.256;2023-07-02T00:10:57;96280.72;;;16.76;100.00
41334;BME280;27078;46.428;6.256;2023-07-02T00:13:22;96275.75;;;16.81;100.00
41334;BME280;27078;46.428;6.256;2023-07-02T00:15:48;96283.06;;;16.79;100.00
41334;BME280;27078;46.428;6.256;2023-07-02T00:18:13;96280.69;;;16.84;100.00
41334;BME280;27078;46.428;6.256;2023-07-02T00:20:43;96270.88;;;16.85;100.00
41334;BME280;27078;46.428;6.256;2023-07-02T00:23:08;96268.25;;;16.77;100.00
41334;BME280;27078;46.428;6.256;2023-07-02T00:25:35;96269.41;;;16.74;100.00
41334;BME280;27078;46.428;6.256;2023-07-02T00:28:00;96262.81;;;16.70;100.00
41334;BME280;27078;46.428;6.256;2023-07-02T00:30:26;96264.09;;;16.74;100.00
41334;BME280;27078;46.428;6.256;2023-07-02T00:32:51;96263.91;;;16.76;100.00
41334;BME280;27078;46.428;6.256;2023-07-02T00:35:16;96267.22;;;16.78;100.00
41334;BME280;27078;46.428;6.256;2023-07-02T00:37:42;96267.38;;;16.84;100.00
41334;BME280;27078;46.428;6.256;2023-07-02T00:40:07;96267.66;;;16.89;100.00
41334;BME280;27078;46.428;6.256;2023-07-02T00:42:33;96258.66;;;16.91;100.00
41334;BME280;27078;46.428;6.256;2023-07-02T00:44:59;96267.47;;;16.91;100.00
41334;BME280;27078;46.428;6.256;2023-07-02T00:47:28;96266.00;;;16.88;100.00
41334;BME280;27078;46.428;6.256;2023-07-02T00:49:54;96262.69;;;16.86;100.00
41334;BME280;27078;46.428;6.256;2023-07-02T00:52:20;96256.91;;;16.83;100.00
41334;BME280;27078;46.428;6.256;2023-07-02T00:54:46;96267.56;;;16.83;100.00
41334;BME280;27078;46.428;6.256;2023-07-02T00:57:11;96264.69;;;16.84;100.00
41334;BME280;27078;46.428;6.256;2023-07-02T00:59:37;96261.38;;;16.82;100.00
41334;BME280;27078;46.428;6.256;2023-07-02T01:02:03;96263.72;;;16.85;100.00
41334;BME280;27078;46.428;6.256;2023-07-02T01:04:30;96282.38;;;16.85;100.00
41334;BME280;27078;46.428;6.256;2023-07-02T01:06:56;96273.22;;;16.80;100.00
41334;BME280;27078;46.428;6.256;2023-07-02T01:09:24;96272.56;;;16.78;100.00
41334;BME280;27078;46.428;6.256;2023-07-02T01:11:54;96265.06;;;16.81;100.00
41334;BME280;27078;46.428;6.256;2023-07-02T01:14:37;96264.72;;;16.76;100.00
41334;BME280;27078;46.428;6.256;2023-07-02T01:17:05;96266.41;;;16.77;100.00
41334;BME280;27078;46.428;6.256;2023-07-02T01:22:06;96253.41;;;16.74;100.00
41334;BME280;27078;46.428;6.256;2023-07-02T01:24:32;96250.94;;;16.73;100.00
41334;BME280;27078;46.428;6.256;2023-07-02T01:26:57;96256.56;;;16.78;100.00
41334;BME280;27078;46.428;6.256;2023-07-02T01:29:29;96252.72;;;16.80;100.00
41334;BME280;27078;46.428;6.256;2023-07-02T01:31:55;96257.06;;;16.81;100.00
41334;BME280;27078;46.428;6.256;2023-07-02T01:34:21;96260.06;;;16.78;100.00
41334;BME280;27078;46.428;6.256;2023-07-02T01:36:46;96262.22;;;16.83;100.00
41334;BME280;27078;46.428;6.256;2023-07-02T01:39:12;96271.56;;;16.79;100.00
41334;BME280;27078;46.428;6.256;2023-07-02T01:41:49;96256.72;;;16.76;100.00
41334;BME280;27078;46.428;6.256;2023-07-02T01:44:15;96260.56;;;16.82;100.00
41334;BME280;27078;46.428;6.256;2023-07-02T01:46:40;96266.06;;;16.80;100.00
41334;BME280;27078;46.428;6.256;2023-07-02T01:49:06;96264.09;;;16.74;100.00
41334;BME280;27078;46.428;6.256;2023-07-02T01:51:31;96253.06;;;16.77;100.00
41334;BME280;27078;46.428;6.256;2023-07-02T01:53:57;96259.75;;;16.81;100.00
41334;BME280;27078;46.428;6.256;2023-07-02T01:56:22;96267.06;;;16.79;100.00
41334;BME280;27078;46.428;6.256;2023-07-02T01:58:47;96267.59;;;16.75;100.00
41334;BME280;27078;46.428;6.256;2023-07-02T02:01:13;96264.81;;;16.68;100.00
41334;BME280;27078;46.428;6.256;2023-07-02T02:03:38;96267.19;;;16.63;100.00
41334;BME280;27078;46.428;6.256;2023-07-02T02:06:03;96264.69;;;16.61;100.00
41334;BME280;27078;46.428;6.256;2023-07-02T02:08:29;96275.34;;;16.61;100.00
41334;BME280;27078;46.428;6.256;2023-07-02T02:10:54;96278.50;;;16.65;100.00
41334;BME280;27078;46.428;6.256;2023-07-02T02:13:19;96280.81;;;16.68;100.00
41334;BME280;27078;46.428;6.256;2023-07-02T02:15:45;96282.47;;;16.69;100.00
41334;BME280;27078;46.428;6.256;2023-07-02T02:18:10;96269.13;;;16.69;100.00
41334;BME280;27078;46.428;6.256;2023-07-02T02:20:35;96270.44;;;16.73;100.00
41334;BME280;27078;46.428;6.256;2023-07-02T02:23:01;96274.63;;;16.67;100.00
41334;BME280;27078;46.428;6.256;2023-07-02T02:25:26;96271.16;;;16.67;100.00
41334;BME280;27078;46.428;6.256;2023-07-02T02:27:51;96270.50;;;16.65;100.00
41334;BME280;27078;46.428;6.256;2023-07-02T02:30:17;96271.69;;;16.62;100.00
41334;BME280;27078;46.428;6.256;2023-07-02T02:32:42;96267.50;;;16.68;100.00
41334;BME280;27078;46.428;6.256;2023-07-02T02:35:08;96272.50;;;16.63;100.00
41334;BME280;27078;46.428;6.256;2023-07-02T02:37:34;96273.88;;;16.59;100.00
41334;BME280;27078;46.428;6.256;2023-07-02T02:40:00;96279.03;;;16.60;100.00
41334;BME280;27078;46.428;6.256;2023-07-02T02:42:26;96279.19;;;16.59;100.00
41334;BME280;27078;46.428;6.256;2023-07-02T02:44:51;96284.91;;;16.56;100.00
41334;BME280;27078;46.428;6.256;2023-07-02T02:47:16;96274.28;;;16.47;100.00
41334;BME280;27078;46.428;6.256;2023-07-02T02:49:42;96283.59;;;16.52;100.00
41334;BME280;27078;46.428;6.256;2023-07-02T02:52:07;96284.41;;;16.52;100.00
41334;BME280;27078;46.428;6.256;2023-07-02T02:54:32;96285.66;;;16.41;100.00
41334;BME280;27078;46.428;6.256;2023-07-02T02:56:58;96279.31;;;16.42;100.00
41334;BME280;27078;46.428;6.256;2023-07-02T02:59:23;96285.66;;;16.41;100.00
41334;BME280;27078;46.428;6.256;2023-07-02T03:01:48;96278.31;;;16.43;100.00
41334;BME280;27078;46.428;6.256;2023-07-02T03:04:14;96279.13;;;16.44;100.00
41334;BME280;27078;46.428;6.256;2023-07-02T03:06:39;96285.78;;;16.48;100.00
41334;BME280;27078;46.428;6.256;2023-07-02T03:09:05;96284.94;;;16.47;100.00
41334;BME280;27078;46.428;6.256;2023-07-02T03:11:30;96283.66;;;16.43;100.00
41334;BME280;27078;46.428;6.256;2023-07-02T03:13:55;96284.63;;;16.42;100.00
41334;BME280;27078;46.428;6.256;2023-07-02T03:16:21;96280.69;;;16.38;100.00
41334;BME280;27078;46.428;6.256;2023-07-02T03:18:46;96287.00;;;16.37;100.00
41334;BME280;27078;46.428;6.256;2023-07-02T03:21:12;96281.53;;;16.39;100.00
41334;BME280;27078;46.428;6.256;2023-07-02T03:23:37;96284.00;;;16.40;100.00
41334;BME280;27078;46.428;6.256;2023-07-02T03:26:03;96292.63;;;16.42;100.00
41334;BME280;27078;46.428;6.256;2023-07-02T03:28:28;96286.59;;;16.48;100.00
41334;BME280;27078;46.428;6.256;2023-07-02T03:30:53;96287.09;;;16.52;100.00
41334;BME280;27078;46.428;6.256;2023-07-02T03:33:19;96286.53;;;16.57;100.00
41334;BME280;27078;46.428;6.256;2023-07-02T03:35:44;96290.50;;;16.61;100.00
41334;BME280;27078;46.428;6.256;2023-07-02T03:38:09;96290.50;;;16.61;100.00
41334;BME280;27078;46.428;6.256;2023-07-02T03:40:35;96291.16;;;16.63;100.00
41334;BME280;27078;46.428;6.256;2023-07-02T03:43:00;96301.84;;;16.63;100.00
41334;BME280;27078;46.428;6.256;2023-07-02T03:45:26;96302.00;;;16.61;100.00
41334;BME280;27078;46.428;6.256;2023-07-02T03:47:51;96297.53;;;16.62;100.00
41334;BME280;27078;46.428;6.256;2023-07-02T03:50:17;96299.34;;;16.61;100.00
41334;BME280;27078;46.428;6.256;2023-07-02T03:52:43;96302.38;;;16.58;100.00
41334;BME280;27078;46.428;6.256;2023-07-02T03:55:08;96292.06;;;16.55;100.00
41334;BME280;27078;46.428;6.256;2023-07-02T03:57:34;96300.25;;;16.54;100.00
41334;BME280;27078;46.428;6.256;2023-07-02T03:59:59;96298.94;;;16.49;100.00
41334;BME280;27078;46.428;6.256;2023-07-02T04:02:24;96304.44;;;16.48;100.00
41334;BME280;27078;46.428;6.256;2023-07-02T04:04:50;96304.16;;;16.43;100.00
41334;BME280;27078;46.428;6.256;2023-07-02T04:07:15;96311.66;;;16.39;100.00
41334;BME280;27078;46.428;6.256;2023-07-02T04:09:41;96308.16;;;16.39;100.00
41334;BME280;27078;46.428;6.256;2023-07-02T04:12:06;96314.47;;;16.38;100.00
41334;BME280;27078;46.428;6.256;2023-07-02T04:14:32;96308.34;;;16.37;100.00
41334;BME280;27078;46.428;6.256;2023-07-02T04:16:57;96314.84;;;16.35;100.00
41334;BME280;27078;46.428;6.256;2023-07-02T04:19:23;96310.72;;;16.32;100.00
41334;BME280;27078;46.428;6.256;2023-07-02T04:21:48;96315.69;;;16.35;100.00
41334;BME280;27078;46.428;6.256;2023-07-02T04:24:13;96314.69;;;16.36;100.00
41334;BME280;27078;46.428;6.256;2023-07-02T04:26:39;96318.00;;;16.38;100.00
41334;BME280;27078;46.428;6.256;2023-07-02T04:29:08;96322.16;;;16.41;100.00
41334;BME280;27078;46.428;6.256;2023-07-02T04:31:34;96320.59;;;16.46;100.00
41334;BME280;27078;46.428;6.256;2023-07-02T04:33:59;96323.09;;;16.48;100.00
41334;BME280;27078;46.428;6.256;2023-07-02T04:36:24;96317.94;;;16.46;100.00
41334;BME280;27078;46.428;6.256;2023-07-02T04:38:49;96325.09;;;16.46;100.00
41334;BME280;27078;46.428;6.256;2023-07-02T04:41:17;96319.66;;;16.39;100.00
41334;BME280;27078;46.428;6.256;2023-07-02T04:43:43;96321.31;;;16.40;100.00
41334;BME280;27078;46.428;6.256;2023-07-02T04:46:10;96321.31;;;16.40;100.00
41334;BME280;27078;46.428;6.256;2023-07-02T04:48:37;96319.78;;;16.46;100.00
41334;BME280;27078;46.428;6.256;2023-07-02T04:51:03;96321.56;;;16.54;100.00
41334;BME280;27078;46.428;6.256;2023-07-02T04:53:28;96321.63;;;16.45;100.00
41334;BME280;27078;46.428;6.256;2023-07-02T04:55:54;96326.56;;;16.48;100.00
41334;BME280;27078;46.428;6.256;2023-07-02T04:58:19;96328.22;;;16.58;100.00
41334;BME280;27078;46.428;6.256;2023-07-02T05:00:45;96329.84;;;16.59;100.00
41334;BME280;27078;46.428;6.256;2023-07-02T05:03:10;96333.88;;;16.55;100.00
41334;BME280;27078;46.428;6.256;2023-07-02T05:05:35;96335.72;;;16.54;100.00
41334;BME280;27078;46.428;6.256;2023-07-02T05:08:01;96338.88;;;16.58;100.00
41334;BME280;27078;46.428;6.256;2023-07-02T05:10:26;96341.81;;;16.63;100.00
41334;BME280;27078;46.428;6.256;2023-07-02T05:12:52;96335.13;;;16.67;100.00
41334;BME280;27078;46.428;6.256;2023-07-02T05:15:17;96339.53;;;16.60;100.00
41334;BME280;27078;46.428;6.256;2023-07-02T05:17:42;96329.09;;;16.73;100.00
41334;BME280;27078;46.428;6.256;2023-07-02T05:20:08;96331.56;;;16.83;100.00
41334;BME280;27078;46.428;6.256;2023-07-02T05:22:34;96340.34;;;16.92;100.00
41334;BME280;27078;46.428;6.256;2023-07-02T05:24:59;96337.88;;;17.05;100.00
41334;BME280;27078;46.428;6.256;2023-07-02T05:27:24;96331.94;;;17.18;100.00
41334;BME280;27078;46.428;6.256;2023-07-02T05:29:50;96328.66;;;17.30;100.00
41334;BME280;27078;46.428;6.256;2023-07-02T05:32:15;96330.97;;;17.34;100.00
41334;BME280;27078;46.428;6.256;2023-07-02T05:34:40;96336.97;;;17.36;100.00
41334;BME280;27078;46.428;6.256;2023-07-02T05:37:06;96333.75;;;17.40;100.00
41334;BME280;27078;46.428;6.256;2023-07-02T05:39:31;96326.47;;;17.49;100.00
41334;BME280;27078;46.428;6.256;2023-07-02T05:41:58;96338.22;;;17.40;100.00
41334;BME280;27078;46.428;6.256;2023-07-02T05:44:23;96341.69;;;17.48;100.00
41334;BME280;27078;46.428;6.256;2023-07-02T05:46:49;96345.41;;;17.39;100.00
41334;BME280;27078;46.428;6.256;2023-07-02T05:49:14;96342.03;;;17.60;100.00
41334;BME280;27078;46.428;6.256;2023-07-02T05:51:39;96343.25;;;17.58;100.00
41334;BME280;27078;46.428;6.256;2023-07-02T05:54:05;96348.34;;;17.67;100.00
41334;BME280;27078;46.428;6.256;2023-07-02T05:56:30;96347.88;;;17.79;100.00
41334;BME280;27078;46.428;6.256;2023-07-02T05:58:56;96339.25;;;17.92;100.00
41334;BME280;27078;46.428;6.256;2023-07-02T06:01:21;96343.66;;;17.99;100.00
41334;BME280;27078;46.428;6.256;2023-07-02T06:03:49;96347.50;;;18.11;100.00
41334;BME280;27078;46.428;6.256;2023-07-02T06:06:14;96348.78;;;18.30;100.00
41334;BME280;27078;46.428;6.256;2023-07-02T06:08:40;96346.28;;;18.44;100.00
41334;BME280;27078;46.428;6.256;2023-07-02T06:11:05;96349.03;;;18.50;100.00
41334;BME280;27078;46.428;6.256;2023-07-02T06:13:31;96351.47;;;18.67;100.00
41334;BME280;27078;46.428;6.256;2023-07-02T06:15:56;96344.47;;;18.66;100.00
41334;BME280;27078;46.428;6.256;2023-07-02T06:18:22;96346.34;;;18.50;100.00
41334;BME280;27078;46.428;6.256;2023-07-02T06:20:47;96338.69;;;18.47;100.00
41334;BME280;27078;46.428;6.256;2023-07-02T06:23:13;96346.56;;;18.34;100.00
41334;BME280;27078;46.428;6.256;2023-07-02T06:25:38;96354.72;;;18.47;100.00
41334;BME280;27078;46.428;6.256;2023-07-02T06:28:03;96356.50;;;18.40;100.00
41334;BME280;27078;46.428;6.256;2023-07-02T06:30:29;96363.16;;;18.29;100.00
41334;BME280;27078;46.428;6.256;2023-07-02T06:32:54;96362.25;;;18.37;100.00
41334;BME280;27078;46.428;6.256;2023-07-02T06:35:20;96369.38;;;18.51;100.00
41334;BME280;27078;46.428;6.256;2023-07-02T06:37:46;96364.44;;;18.48;100.00
41334;BME280;27078;46.428;6.256;2023-07-02T06:40:11;96369.84;;;18.55;100.00
41334;BME280;27078;46.428;6.256;2023-07-02T06:42:37;96366.53;;;18.53;100.00
41334;BME280;27078;46.428;6.256;2023-07-02T06:45:03;96370.91;;;18.76;100.00
41334;BME280;27078;46.428;6.256;2023-07-02T06:47:28;96373.63;;;18.97;100.00
41334;BME280;27078;46.428;6.256;2023-07-02T06:49:54;96371.75;;;19.19;100.00
41334;BME280;27078;46.428;6.256;2023-07-02T06:52:19;96377.31;;;19.39;100.00
41334;BME280;27078;46.428;6.256;2023-07-02T06:54:44;96378.63;;;19.50;100.00
41334;BME280;27078;46.428;6.256;2023-07-02T06:57:10;96377.22;;;19.54;100.00
41334;BME280;27078;46.428;6.256;2023-07-02T06:59:35;96376.22;;;19.62;100.00
41334;BME280;27078;46.428;6.256;2023-07-02T07:02:02;96378.72;;;19.63;100.00
41334;BME280;27078;46.428;6.256;2023-07-02T07:04:27;96376.66;;;19.87;100.00
41334;BME280;27078;46.428;6.256;2023-07-02T07:06:53;96373.25;;;20.06;100.00
41334;BME280;27078;46.428;6.256;2023-07-02T07:09:20;96383.31;;;20.32;100.00
41334;BME280;27078;46.428;6.256;2023-07-02T07:11:46;96378.63;;;20.48;100.00
41334;BME280;27078;46.428;6.256;2023-07-02T07:14:11;96383.38;;;20.46;100.00
41334;BME280;27078;46.428;6.256;2023-07-02T07:16:36;96381.59;;;20.18;100.00
41334;BME280;27078;46.428;6.256;2023-07-02T07:19:02;96380.88;;;20.03;100.00
41334;BME280;27078;46.428;6.256;2023-07-02T07:21:27;96379.50;;;20.13;100.00
41334;BME280;27078;46.428;6.256;2023-07-02T07:23:53;96379.31;;;19.87;100.00
41334;BME280;27078;46.428;6.256;2023-07-02T07:26:18;96384.94;;;19.92;100.00
41334;BME280;27078;46.428;6.256;2023-07-02T07:28:43;96380.59;;;19.91;100.00
41334;BME280;27078;46.428;6.256;2023-07-02T07:31:09;96376.94;;;19.99;100.00
41334;BME280;27078;46.428;6.256;2023-07-02T07:33:34;96376.56;;;20.08;100.00
41334;BME280;27078;46.428;6.256;2023-07-02T07:36:00;96378.63;;;20.06;100.00
41334;BME280;27078;46.428;6.256;2023-07-02T07:38:25;96382.34;;;20.05;100.00
41334;BME280;27078;46.428;6.256;2023-07-02T07:40:51;96373.94;;;20.15;100.00
41334;BME280;27078;46.428;6.256;2023-07-02T07:43:16;96379.59;;;20.33;100.00
41334;BME280;27078;46.428;6.256;2023-07-02T07:45:42;96376.56;;;20.43;100.00
41334;BME280;27078;46.428;6.256;2023-07-02T07:48:07;96373.88;;;20.43;100.00
41334;BME280;27078;46.428;6.256;2023-07-02T07:50:32;96378.00;;;20.46;100.00
41334;BME280;27078;46.428;6.256;2023-07-02T07:52:58;96364.00;;;20.57;100.00
41334;BME280;27078;46.428;6.256;2023-07-02T07:55:23;96364.09;;;20.70;100.00
41334;BME280;27078;46.428;6.256;2023-07-02T07:57:49;96369.75;;;21.02;100.00
41334;BME280;27078;46.428;6.256;2023-07-02T08:00:15;96363.19;;;21.31;100.00
41334;BME280;27078;46.428;6.256;2023-07-02T08:02:41;96365.00;;;21.31;100.00
41334;BME280;27078;46.428;6.256;2023-07-02T08:05:07;96366.69;;;21.25;100.00
41334;BME280;27078;46.428;6.256;2023-07-02T08:07:32;96360.06;;;21.41;100.00
41334;BME280;27078;46.428;6.256;2023-07-02T08:09:58;96365.25;;;21.29;100.00
41334;BME280;27078;46.428;6.256;2023-07-02T08:12:24;96359.63;;;21.18;100.00
41334;BME280;27078;46.428;6.256;2023-07-02T08:14:49;96355.72;;;21.33;100.00
41334;BME280;27078;46.428;6.256;2023-07-02T08:17:15;96364.22;;;21.77;100.00
41334;BME280;27078;46.428;6.256;2023-07-02T08:19:40;96363.75;;;22.07;100.00
41334;BME280;27078;46.428;6.256;2023-07-02T08:22:05;96358.75;;;22.17;100.00
41334;BME280;27078;46.428;6.256;2023-07-02T08:24:31;96363.78;;;21.93;100.00
41334;BME280;27078;46.428;6.256;2023-07-02T08:26:57;96364.97;;;22.24;100.00
41334;BME280;27078;46.428;6.256;2023-07-02T08:29:23;96361.88;;;22.27;100.00
41334;BME280;27078;46.428;6.256;2023-07-02T08:31:48;96366.66;;;22.12;100.00
41334;BME280;27078;46.428;6.256;2023-07-02T08:34:13;96354.84;;;22.13;100.00
41334;BME280;27078;46.428;6.256;2023-07-02T08:36:39;96353.81;;;22.14;100.00
41334;BME280;27078;46.428;6.256;2023-07-02T08:39:04;96354.53;;;22.54;100.00
41334;BME280;27078;46.428;6.256;2023-07-02T08:41:30;96347.38;;;22.73;100.00
41334;BME280;27078;46.428;6.256;2023-07-02T08:43:56;96358.81;;;22.62;100.00
41334;BME280;27078;46.428;6.256;2023-07-02T08:46:24;96362.22;;;22.44;100.00
41334;BME280;27078;46.428;6.256;2023-07-02T08:48:49;96359.97;;;22.34;100.00
41334;BME280;27078;46.428;6.256;2023-07-02T08:51:15;96356.59;;;22.52;100.00
41334;BME280;27078;46.428;6.256;2023-07-02T08:53:40;96364.88;;;22.51;100.00
41334;BME280;27078;46.428;6.256;2023-07-02T08:56:06;96351.31;;;22.77;100.00
41334;BME280;27078;46.428;6.256;2023-07-02T08:58:31;96360.91;;;23.05;100.00
41334;BME280;27078;46.428;6.256;2023-07-02T09:01:09;96354.94;;;23.28;100.00
41334;BME280;27078;46.428;6.256;2023-07-02T09:03:36;96362.13;;;23.34;100.00
41334;BME280;27078;46.428;6.256;2023-07-02T09:06:08;96366.41;;;23.17;100.00
41334;BME280;27078;46.428;6.256;2023-07-02T09:08:34;96353.44;;;23.07;100.00
41334;BME280;27078;46.428;6.256;2023-07-02T09:11:14;96360.34;;;22.45;100.00
41334;BME280;27078;46.428;6.256;2023-07-02T09:13:48;96364.09;;;22.44;100.00
41334;BME280;27078;46.428;6.256;2023-07-02T09:16:29;96356.88;;;22.38;100.00
41334;BME280;27078;46.428;6.256;2023-07-02T09:21:42;96345.72;;;23.11;100.00
41334;BME280;27078;46.428;6.256;2023-07-02T09:24:26;96342.25;;;23.04;100.00
41334;BME280;27078;46.428;6.256;2023-07-02T09:26:54;96348.56;;;23.48;100.00
41334;BME280;27078;46.428;6.256;2023-07-02T09:29:30;96345.31;;;23.64;100.00
41334;BME280;27078;46.428;6.256;2023-07-02T09:31:58;96343.06;;;23.86;100.00
41334;BME280;27078;46.428;6.256;2023-07-02T09:34:30;96340.47;;;23.73;100.00
41334;BME280;27078;46.428;6.256;2023-07-02T09:36:57;96341.97;;;23.69;100.00
41334;BME280;27078;46.428;6.256;2023-07-02T09:39:30;96341.84;;;23.82;100.00
41334;BME280;27078;46.428;6.256;2023-07-02T09:41:56;96346.28;;;23.95;100.00
41334;BME280;27078;46.428;6.256;2023-07-02T09:44:27;96343.59;;;24.32;100.00
41334;BME280;27078;46.428;6.256;2023-07-02T09:47:07;96341.38;;;24.29;100.00
41334;BME280;27078;46.428;6.256;2023-07-02T09:49:37;96346.75;;;24.10;100.00
41334;BME280;27078;46.428;6.256;2023-07-02T09:52:07;96340.06;;;23.76;100.00
41334;BME280;27078;46.428;6.256;2023-07-02T09:54:33;96346.16;;;23.90;100.00
41334;BME280;27078;46.428;6.256;2023-07-02T09:56:59;96352.16;;;23.92;100.00
41334;BME280;27078;46.428;6.256;2023-07-02T09:59:24;96347.84;;;23.84;100.00
41334;BME280;27078;46.428;6.256;2023-07-02T10:01:50;96348.31;;;23.74;100.00
41334;BME280;27078;46.428;6.256;2023-07-02T10:04:18;96352.28;;;23.97;100.00
41334;BME280;27078;46.428;6.256;2023-07-02T10:06:47;96348.09;;;24.01;100.00
41334;BME280;27078;46.428;6.256;2023-07-02T10:09:13;96350.38;;;23.79;100.00
41334;BME280;27078;46.428;6.256;2023-07-02T10:11:38;96351.53;;;23.40;100.00
41334;BME280;27078;46.428;6.256;2023-07-02T10:14:03;96343.25;;;23.41;100.00
41334;BME280;27078;46.428;6.256;2023-07-02T10:16:29;96346.56;;;23.36;100.00
41334;BME280;27078;46.428;6.256;2023-07-02T10:19:08;96347.16;;;23.13;100.00
41334;BME280;27078;46.428;6.256;2023-07-02T10:21:34;96342.41;;;23.41;100.00
41334;BME280;27078;46.428;6.256;2023-07-02T10:24:12;96335.50;;;23.70;100.00
41334;BME280;27078;46.428;6.256;2023-07-02T10:26:38;96346.09;;;23.96;100.00
41334;BME280;27078;46.428;6.256;2023-07-02T10:29:03;96339.13;;;24.26;100.00
41334;BME280;27078;46.428;6.256;2023-07-02T10:31:28;96341.38;;;25.08;100.00
41334;BME280;27078;46.428;6.256;2023-07-02T10:33:54;96334.78;;;24.92;100.00
41334;BME280;27078;46.428;6.256;2023-07-02T10:36:21;96342.59;;;24.45;100.00
41334;BME280;27078;46.428;6.256;2023-07-02T10:38:47;96349.47;;;24.29;100.00
41334;BME280;27078;46.428;6.256;2023-07-02T10:41:26;96341.03;;;24.00;100.00
41334;BME280;27078;46.428;6.256;2023-07-02T10:43:52;96352.88;;;23.99;100.00
41334;BME280;27078;46.428;6.256;2023-07-02T10:46:21;96356.56;;;24.05;100.00
41334;BME280;27078;46.428;6.256;2023-07-02T10:48:56;96348.19;;;23.94;100.00
41334;BME280;27078;46.428;6.256;2023-07-02T10:51:22;96351.22;;;23.80;100.00
41334;BME280;27078;46.428;6.256;2023-07-02T10:54:02;96354.72;;;23.55;100.00
41334;BME280;27078;46.428;6.256;2023-07-02T10:56:30;96354.03;;;23.34;100.00
41334;BME280;27078;46.428;6.256;2023-07-02T10:58:56;96352.34;;;23.65;100.00
41334;BME280;27078;46.428;6.256;2023-07-02T11:01:27;96354.53;;;23.82;100.00
41334;BME280;27078;46.428;6.256;2023-07-02T11:04:00;96357.47;;;23.73;100.00
41334;BME280;27078;46.428;6.256;2023-07-02T11:06:27;96364.78;;;23.91;100.00
41334;BME280;27078;46.428;6.256;2023-07-02T11:08:53;96363.34;;;23.89;100.00
41334;BME280;27078;46.428;6.256;2023-07-02T11:11:20;96353.34;;;23.46;100.00
41334;BME280;27078;46.428;6.256;2023-07-02T11:13:46;96367.72;;;23.08;100.00
41334;BME280;27078;46.428;6.256;2023-07-02T11:16:26;96366.34;;;23.24;100.00
41334;BME280;27078;46.428;6.256;2023-07-02T11:19:06;96361.38;;;23.52;100.00
41334;BME280;27078;46.428;6.256;2023-07-02T11:21:33;96365.00;;;23.65;100.00
41334;BME280;27078;46.428;6.256;2023-07-02T11:24:06;96362.19;;;24.03;100.00
41334;BME280;27078;46.428;6.256;2023-07-02T11:26:39;96365.88;;;24.09;100.00
41334;BME280;27078;46.428;6.256;2023-07-02T11:29:18;96374.59;;;24.04;100.00
41334;BME280;27078;46.428;6.256;2023-07-02T11:31:43;96385.44;;;23.72;100.00
41334;BME280;27078;46.428;6.256;2023-07-02T11:34:16;96368.84;;;22.87;100.00
41334;BME280;27078;46.428;6.256;2023-07-02T11:36:42;96383.19;;;22.74;100.00
41334;BME280;27078;46.428;6.256;2023-07-02T11:39:07;96370.09;;;22.39;100.00
41334;BME280;27078;46.428;6.256;2023-07-02T11:41:43;96372.84;;;22.12;100.00
41334;BME280;27078;46.428;6.256;2023-07-02T11:44:09;96383.03;;;21.70;100.00
41334;BME280;27078;46.428;6.256;2023-07-02T11:46:35;96391.50;;;21.54;100.00
41334;BME280;27078;46.428;6.256;2023-07-02T11:49:01;96374.94;;;21.30;100.00
41334;BME280;27078;46.428;6.256;2023-07-02T11:51:27;96362.53;;;21.16;100.00
41334;BME280;27078;46.428;6.256;2023-07-02T11:53:52;96367.06;;;21.15;100.00
41334;BME280;27078;46.428;6.256;2023-07-02T11:56:18;96364.81;;;21.39;100.00
41334;BME280;27078;46.428;6.256;2023-07-02T11:58:43;96365.03;;;21.78;100.00
41334;BME280;27078;46.428;6.256;2023-07-02T12:01:09;96368.88;;;22.28;100.00
41334;BME280;27078;46.428;6.256;2023-07-02T12:03:34;96365.44;;;22.60;100.00
41334;BME280;27078;46.428;6.256;2023-07-02T12:06:00;96362.00;;;22.39;100.00
41334;BME280;27078;46.428;6.256;2023-07-02T12:08:25;96361.47;;;22.69;100.00
41334;BME280;27078;46.428;6.256;2023-07-02T12:10:51;96352.72;;;22.80;100.00
41334;BME280;27078;46.428;6.256;2023-07-02T12:13:17;96362.88;;;23.16;100.00
41334;BME280;27078;46.428;6.256;2023-07-02T12:15:42;96353.78;;;23.43;100.00
41334;BME280;27078;46.428;6.256;2023-07-02T12:18:09;96363.00;;;22.96;100.00
41334;BME280;27078;46.428;6.256;2023-07-02T12:20:34;96362.75;;;22.98;100.00
41334;BME280;27078;46.428;6.256;2023-07-02T12:23:00;96362.53;;;23.06;100.00
41334;BME280;27078;46.428;6.256;2023-07-02T12:25:25;96357.16;;;23.06;100.00
41334;BME280;27078;46.428;6.256;2023-07-02T12:27:50;96361.94;;;23.04;100.00
41334;BME280;27078;46.428;6.256;2023-07-02T12:30:16;96358.16;;;23.12;100.00
41334;BME280;27078;46.428;6.256;2023-07-02T12:32:43;96357.16;;;23.06;100.00
41334;BME280;27078;46.428;6.256;2023-07-02T12:35:09;96358.88;;;23.26;100.00
41334;BME280;27078;46.428;6.256;2023-07-02T12:37:34;96360.03;;;23.36;100.00
41334;BME280;27078;46.428;6.256;2023-07-02T12:39:59;96363.59;;;23.62;100.00
41334;BME280;27078;46.428;6.256;2023-07-02T12:42:25;96364.47;;;23.56;100.00
41334;BME280;27078;46.428;6.256;2023-07-02T12:44:50;96355.06;;;23.90;100.00
41334;BME280;27078;46.428;6.256;2023-07-02T12:47:16;96360.72;;;23.82;100.00
41334;BME280;27078;46.428;6.256;2023-07-02T12:49:41;96348.91;;;24.02;100.00
41334;BME280;27078;46.428;6.256;2023-07-02T12:52:06;96356.47;;;23.93;90.40